createdAt,value
2019-06-01T00:04:19.332Z,101006.69
2019-06-01T00:09:23.196Z,101010.23
2019-06-01T00:14:27.025Z,101010.23
2019-06-01T00:19:30.845Z,101002.40
2019-06-01T00:24:34.663Z,101008.16
2019-06-01T00:29:38.446Z,101004.60
2019-06-01T00:34:43.508Z,101000.20
2019-06-01T00:39:47.883Z,101000.20
2019-06-01T00:44:52.482Z,101002.28
2019-06-01T00:49:56.436Z,100994.93
2019-06-01T00:55:00.388Z,100994.93
2019-06-01T01:00:04.287Z,100996.77
2019-06-01T01:05:10.688Z,100996.77
2019-06-01T01:10:14.527Z,100998.12
2019-06-01T01:15:18.312Z,100995.55
2019-06-01T01:20:22.142Z,101000.44
2019-06-01T01:25:25.954Z,101000.44
2019-06-01T01:30:29.738Z,101005.46
2019-06-01T01:35:33.521Z,101005.46
2019-06-01T01:40:37.321Z,101004.97
2019-06-01T01:45:41.184Z,101010.84
2019-06-01T01:50:44.946Z,101010.84
2019-06-01T01:55:48.740Z,101011.83
2019-06-01T02:00:54.467Z,101004.20
2019-06-01T02:05:59.096Z,101001.11
2019-06-01T02:11:03.064Z,101004.30
2019-06-01T02:16:06.879Z,101004.30
2019-06-01T02:21:11.135Z,100997.92
2019-06-01T02:26:14.902Z,100997.56
2019-06-01T02:31:18.678Z,100997.56
2019-06-01T02:36:22.544Z,100987.77
2019-06-01T02:41:26.376Z,100988.10
2019-06-01T02:46:30.357Z,100990.31
2019-06-01T02:51:35.353Z,100989.48
2019-06-01T02:56:39.216Z,100992.05
2019-06-01T03:01:55.905Z,100992.05
2019-06-01T03:06:48.544Z,100982.66
2019-06-01T03:11:54.059Z,100984.41
2019-06-01T03:16:59.794Z,100989.67
2019-06-01T03:22:05.643Z,100989.91
2019-06-01T03:27:10.494Z,100987.09
2019-06-01T03:32:34.276Z,100984.77
2019-06-01T03:37:19.766Z,100987.73
2019-06-01T03:42:23.619Z,100981.73
2019-06-01T03:47:27.425Z,100981.73
2019-06-01T03:52:31.206Z,100987.37
2019-06-01T03:57:35.073Z,100988.10
2019-06-01T04:02:38.849Z,100991.16
2019-06-01T04:07:42.645Z,100997.19
2019-06-01T04:12:46.449Z,100997.19
2019-06-01T04:17:50.231Z,100997.44
2019-06-01T04:22:54.020Z,100992.28
2019-06-01T04:27:57.819Z,100992.28
2019-06-01T04:33:02.569Z,100997.70
2019-06-01T04:38:07.195Z,101003.82
2019-06-01T04:43:12.059Z,101005.78
2019-06-01T04:48:15.915Z,101016.67
2019-06-01T04:53:19.706Z,101010.92
2019-06-01T04:58:23.562Z,101010.58
2019-06-01T05:03:27.471Z,101023.93
2019-06-01T05:08:31.240Z,101017.67
2019-06-01T05:13:35.007Z,101017.67
2019-06-01T05:18:38.826Z,101026.11
2019-06-01T05:23:42.574Z,101036.89
2019-06-01T05:28:46.340Z,101030.77
2019-06-01T05:33:50.112Z,101032.36
2019-06-01T05:38:53.892Z,101027.95
2019-06-01T05:43:57.734Z,101029.42
2019-06-01T05:49:01.587Z,101035.55
2019-06-01T05:54:05.366Z,101038.23
2019-06-01T05:59:09.879Z,101038.23
2019-06-01T06:04:13.771Z,101033.92
2019-06-01T06:09:17.553Z,101029.87
2019-06-01T06:14:22.602Z,101030.49
2019-06-01T06:19:26.483Z,101032.20
2019-06-01T06:24:30.249Z,101032.20
2019-06-01T06:29:34.071Z,101032.70
2019-06-01T06:34:37.908Z,101034.05
2019-06-01T06:39:41.759Z,101034.05
2019-06-01T06:44:45.523Z,101042.98
2019-06-01T06:49:49.309Z,101039.92
2019-06-01T06:54:53.218Z,101028.66
2019-06-01T06:59:57.080Z,101030.05
2019-06-01T07:05:00.885Z,101032.83
2019-06-01T07:10:04.834Z,101033.61
2019-06-01T07:15:08.625Z,101033.61
2019-06-01T07:20:12.447Z,101037.17
2019-06-01T07:25:16.252Z,101040.58
2019-06-01T07:30:20.129Z,101040.47
2019-06-01T07:35:24.412Z,101033.69
2019-06-01T07:40:28.885Z,101040.84
2019-06-01T07:45:33.926Z,101041.08
2019-06-01T07:50:38.321Z,101039.50
2019-06-01T07:55:42.099Z,101041.61
2019-06-01T08:00:45.876Z,101041.13
2019-06-01T08:05:49.648Z,101035.44
2019-06-01T08:10:53.432Z,101034.58
2019-06-01T08:15:57.366Z,101034.58
2019-06-01T08:21:01.244Z,101030.86
2019-06-01T08:26:05.048Z,101031.29
2019-06-01T08:31:08.829Z,101030.67
2019-06-01T08:36:12.686Z,101026.63
2019-06-01T08:41:16.524Z,101024.55
2019-06-01T08:46:20.357Z,101024.55
2019-06-01T08:51:24.139Z,101025.17
2019-06-01T08:56:28.227Z,101017.45
2019-06-01T09:01:32.797Z,101015.80
2019-06-01T10:57:12.599Z,100942.71
2019-06-01T11:02:16.372Z,100936.59
2019-06-01T11:07:20.146Z,100927.89
2019-06-01T11:12:23.975Z,100928.66
2019-06-01T11:17:27.901Z,100928.40
2019-06-01T11:22:31.775Z,100928.40
2019-06-01T11:27:35.780Z,100921.91
2019-06-01T11:32:41.553Z,100908.17
2019-06-01T11:37:45.188Z,100908.17
2019-06-01T11:42:50.123Z,100907.68
2019-06-01T11:47:53.968Z,100907.08
2019-06-01T11:52:57.721Z,100891.52
2019-06-01T11:58:01.603Z,100891.52
2019-06-01T12:03:05.473Z,100863.47
2019-06-01T12:08:09.216Z,100875.70
2019-06-01T12:13:13.025Z,100877.45
2019-06-01T12:18:16.835Z,100864.44
2019-06-01T12:23:20.833Z,100864.44
2019-06-01T12:28:24.744Z,100859.05
2019-06-01T12:33:28.517Z,100843.14
2019-06-01T12:38:34.997Z,100843.37
2019-06-01T12:43:39.465Z,100843.37
2019-06-01T12:48:43.957Z,100838.58
2019-06-01T12:53:48.576Z,100832.34
2019-06-01T12:58:52.460Z,100834.05
2019-06-01T13:03:56.256Z,100819.48
2019-06-01T13:09:00.138Z,100826.81
2019-06-01T13:14:04.439Z,100804.77
2019-06-01T14:07:16.700Z,100760.52
2019-06-01T14:12:20.462Z,100754.98
2019-06-01T14:17:24.289Z,100754.98
2019-06-01T14:22:28.046Z,100753.91
2019-06-01T14:27:31.944Z,100746.92
2019-06-01T14:32:35.984Z,100746.92
2019-06-01T14:37:39.791Z,100749.40
2019-06-01T14:42:43.604Z,100744.95
2019-06-01T14:47:47.428Z,100746.80
2019-06-01T14:52:51.574Z,100735.87
2019-06-01T14:57:56.013Z,100733.41
2019-06-01T15:02:59.802Z,100729.85
2019-06-01T15:08:03.617Z,100722.17
2019-06-01T15:13:07.415Z,100722.17
2019-06-01T15:18:11.294Z,100721.77
2019-06-01T15:23:15.065Z,100714.04
2019-06-01T15:28:18.941Z,100706.70
2019-06-01T15:33:22.713Z,100706.70
2019-06-01T15:38:26.472Z,100702.38
2019-06-01T15:43:30.402Z,100702.38
2019-06-01T15:48:34.159Z,100696.14
2019-06-01T15:53:37.932Z,100696.14
2019-06-01T15:58:52.433Z,100690.59
2019-06-01T16:03:47.258Z,100690.59
2019-06-01T16:08:51.071Z,100676.48
2019-06-01T16:13:55.702Z,100674.28
2019-06-01T16:19:04.020Z,100674.41
2019-06-01T16:24:05.295Z,100678.46
2019-06-01T16:29:09.146Z,100674.00
2019-06-01T16:34:13.035Z,100668.81
2019-06-01T16:39:16.801Z,100659.43
2019-06-01T16:44:20.560Z,100659.43
2019-06-01T16:49:27.370Z,100656.59
2019-06-01T16:54:31.396Z,100649.59
2019-06-01T16:59:35.179Z,100649.59
2019-06-01T17:04:38.935Z,100638.80
2019-06-01T17:09:42.910Z,100624.88
2019-06-01T17:14:46.737Z,100629.14
2019-06-01T17:19:50.512Z,100640.78
2019-06-01T17:24:54.303Z,100629.92
2019-06-01T17:29:58.189Z,100629.92
2019-06-01T17:35:03.281Z,100642.62
2019-06-01T17:40:08.450Z,100642.62
2019-06-01T17:45:13.189Z,100634.36
2019-06-01T17:50:18.291Z,100630.92
2019-06-01T17:55:33.362Z,100630.92
2019-06-01T18:00:37.140Z,100628.47
2019-06-01T18:05:40.885Z,100615.29
2019-06-01T18:10:53.904Z,100631.48
2019-06-01T18:15:50.340Z,100636.27
2019-06-01T18:20:54.283Z,100634.13
2019-06-01T18:25:58.110Z,100634.13
2019-06-01T18:31:02.673Z,100635.48
2019-06-01T18:36:07.538Z,100639.22
2019-06-01T18:41:18.566Z,100639.22
2019-06-01T18:46:16.832Z,100638.48
2019-06-01T18:51:20.600Z,100639.00
2019-06-01T18:56:24.402Z,100640.69
2019-06-01T19:01:28.164Z,100640.69
2019-06-01T19:06:31.940Z,100644.97
2019-06-01T19:11:36.407Z,100644.97
2019-06-01T19:16:40.277Z,100649.39
2019-06-01T19:21:44.095Z,100654.79
2019-06-01T19:26:47.886Z,100660.08
2019-06-01T19:31:51.938Z,100660.67
2019-06-01T19:36:55.797Z,100670.66
2019-06-01T19:41:59.626Z,100671.53
2019-06-01T19:47:03.400Z,100673.22
2019-06-01T19:52:08.489Z,100676.12
2019-06-01T19:57:16.956Z,100676.12
2019-06-01T20:02:28.521Z,100667.84
2019-06-01T20:07:23.538Z,100676.34
2019-06-01T20:12:27.344Z,100669.58
2019-06-01T20:17:31.146Z,100668.81
2019-06-01T20:22:35.024Z,100684.23
2019-06-01T20:27:38.914Z,100687.05
2019-06-01T20:32:42.805Z,100687.05
2019-06-01T20:37:46.621Z,100675.92
2019-06-01T20:42:50.395Z,100696.36
2019-06-01T20:47:54.197Z,100696.36
2019-06-01T20:52:58.027Z,100698.70
2019-06-01T20:58:01.801Z,100699.53
2019-06-01T21:03:05.780Z,100700.30
2019-06-01T21:08:09.673Z,100701.73
2019-06-01T21:13:14.120Z,100702.86
2019-06-01T21:18:19.308Z,100708.62
2019-06-01T21:28:40.399Z,100713.47
2019-06-01T21:33:44.209Z,100713.47
2019-06-01T21:38:48.116Z,100705.92
2019-06-01T21:43:51.915Z,100706.64
2019-06-01T21:48:55.749Z,100703.47
2019-06-01T21:53:59.553Z,100703.47
2019-06-01T21:59:03.355Z,100711.09
2019-06-01T22:04:07.166Z,100714.39
2019-06-01T22:09:10.973Z,100712.10
2019-06-01T22:14:14.759Z,100708.32
2019-06-01T22:19:19.567Z,100711.32
2019-06-01T22:24:23.922Z,100715.78
2019-06-01T22:29:28.618Z,100715.78
2019-06-01T22:34:32.601Z,100707.27
2019-06-01T22:39:36.501Z,100702.98
2019-06-01T22:44:40.321Z,100702.98
2019-06-01T22:49:44.153Z,100690.12
2019-06-01T22:54:47.956Z,100695.33
2019-06-01T22:59:51.753Z,100686.13
2019-06-01T23:04:55.593Z,100693.90
2019-06-01T23:09:59.419Z,100693.90
2019-06-01T23:15:03.296Z,100696.30
2019-06-01T23:20:07.128Z,100695.44
2019-06-01T23:25:10.961Z,100693.45
2019-06-01T23:30:14.776Z,100694.23
2019-06-01T23:35:18.580Z,100695.08
2019-06-01T23:40:22.525Z,100692.84
2019-06-01T23:45:26.686Z,100686.84
2019-06-01T23:50:30.502Z,100673.16
2019-06-01T23:55:34.349Z,100673.16
